Time;durP1;ratioP1;P1;durP2;ratioP2;P2;SDS_P1;SDS_P2;PMS_P1;PMS_P2;Temp;Humidity;BMP_temperature;BMP_pressure;BME280_temperature;BME280_humidity;BME280_pressure;Samples;Min_cycle;Max_cycle;Signal;HPM_P1;HPM_P2
2023/12/21 00:00:42;;;;;;;0.50;0.50;;;6.00;79.20;;;7.53;58.56;97344.22;5034238;28;20063;-70
2023/12/21 00:03:09;;;;;;;1.77;0.70;;;5.90;79.50;;;7.52;58.62;97345.19;5032554;28;20046;-71
2023/12/21 00:05:37;;;;;;;0.80;0.80;;;5.90;79.50;;;7.54;58.67;97343.25;5033443;28;20037;-71
2023/12/21 00:08:05;;;;;;;0.50;0.50;;;5.90;79.70;;;7.51;58.21;97338.25;5032214;28;20058;-71
2023/12/21 00:10:32;;;;;;;0.60;0.60;;;5.90;80.10;;;7.52;58.80;97324.00;5033951;28;20052;-71
2023/12/21 00:13:00;;;;;;;0.80;0.70;;;6.00;79.80;;;7.58;58.30;97327.88;5033546;28;20053;-71
2023/12/21 00:15:28;;;;;;;0.70;0.70;;;6.00;79.70;;;7.43;58.60;97331.06;5033933;28;20041;-70
2023/12/21 00:17:55;;;;;;;0.77;0.53;;;6.00;79.70;;;7.49;58.65;97343.69;5033231;28;20041;-70
2023/12/21 00:20:23;;;;;;;0.43;0.30;;;6.00;79.80;;;7.47;58.62;97337.72;5033639;28;20200;-71
2023/12/21 00:22:51;;;;;;;0.37;0.37;;;6.00;79.80;;;7.50;58.52;97339.22;5033341;28;20497;-71
2023/12/21 00:25:18;;;;;;;1.40;0.87;;;6.00;79.90;;;7.53;58.66;97322.22;5033616;28;20584;-69
2023/12/21 00:27:46;;;;;;;0.40;0.40;;;6.10;79.60;;;7.56;58.78;97324.53;5033207;28;20068;-70
2023/12/21 00:30:14;;;;;;;0.40;0.40;;;6.10;79.60;;;7.55;58.69;97321.06;5033403;28;20516;-69
2023/12/21 00:32:42;;;;;;;0.40;0.40;;;6.10;79.90;;;7.59;58.73;97317.13;5033023;28;20057;-69
2023/12/21 00:35:10;;;;;;;0.33;0.30;;;6.20;79.70;;;7.55;58.90;97315.78;5033046;28;20045;-69
2023/12/21 00:37:37;;;;;;;0.73;0.60;;;6.10;79.70;;;7.57;58.82;97316.47;5033107;28;20423;-70
2023/12/21 00:40:07;;;;;;;0.30;0.30;;;6.10;80.10;;;7.53;58.70;97315.09;5033327;28;20044;-69
2023/12/21 00:42:36;;;;;;;0.30;0.30;;;6.10;80.10;;;7.54;59.17;97313.28;5015521;28;20058;-70
2023/12/21 00:45:08;;;;;;;0.40;0.40;;;6.10;80.30;;;7.53;58.89;97299.19;5032964;28;20060;-70
2023/12/21 00:47:36;;;;;;;0.63;0.40;;;6.10;80.50;;;7.58;59.07;97312.84;5032379;28;20049;-70
2023/12/21 00:50:04;;;;;;;0.50;0.30;;;6.20;80.60;;;7.51;59.42;97322.34;5032828;28;20112;-70
2023/12/21 00:52:31;;;;;;;0.40;0.40;;;6.10;80.80;;;7.43;59.58;97314.34;5032986;28;20041;-69
2023/12/21 00:54:59;;;;;;;2.10;0.40;;;6.10;81.20;;;7.49;59.28;97316.38;5033586;28;20045;-70
2023/12/21 00:57:27;;;;;;;0.70;0.47;;;6.00;82.10;;;7.49;59.36;97298.66;5032471;28;20034;-70
2023/12/21 00:59:54;;;;;;;0.50;0.50;;;6.10;81.70;;;7.54;59.78;97289.44;5032870;28;20059;-70
2023/12/21 01:02:22;;;;;;;0.30;0.30;;;6.10;81.80;;;7.52;59.60;97292.22;5032661;28;20049;-69
2023/12/21 01:04:50;;;;;;;1.07;0.40;;;6.10;82.10;;;7.52;59.95;97294.03;5032785;28;20045;-69
2023/12/21 01:07:17;;;;;;;0.30;0.30;;;6.10;82.50;;;7.54;59.78;97286.78;5032390;28;20049;-70
2023/12/21 01:09:45;;;;;;;0.30;0.30;;;6.10;82.30;;;7.60;59.94;97283.53;5031340;28;20048;-70
2023/12/21 01:12:13;;;;;;;0.30;0.30;;;6.10;82.20;;;7.60;59.92;97275.56;5032463;28;20037;-70
2023/12/21 01:14:41;;;;;;;0.30;0.30;;;6.10;82.40;;;7.62;59.60;97273.63;5032562;28;20042;-70
2023/12/21 01:17:08;;;;;;;0.40;0.40;;;6.10;82.20;;;7.63;59.38;97262.84;5032153;28;20417;-70
2023/12/21 01:19:36;;;;;;;0.30;0.30;;;6.10;82.30;;;7.65;59.92;97254.78;5032335;28;20041;-70
2023/12/21 01:22:04;;;;;;;0.37;0.30;;;6.10;82.30;;;7.64;59.63;97245.16;5032493;28;20049;-70
2023/12/21 01:24:31;;;;;;;1.07;0.40;;;6.10;82.40;;;7.64;59.93;97246.00;5024449;28;20101;-70
2023/12/21 01:26:59;;;;;;;0.50;0.50;;;6.10;82.50;;;7.67;59.40;97256.28;5032148;28;20045;-69
2023/12/21 01:29:27;;;;;;;0.43;0.43;;;6.10;82.50;;;7.68;59.62;97241.22;5031788;28;20048;-70
2023/12/21 01:31:54;;;;;;;0.40;0.40;;;6.20;82.40;;;7.71;59.42;97246.19;5030368;28;20060;-70
2023/12/21 01:34:22;;;;;;;0.20;0.20;;;6.10;82.30;;;7.70;59.61;97241.91;5031435;28;20045;-70
2023/12/21 01:36:50;;;;;;;0.50;0.50;;;6.20;81.90;;;7.73;59.32;97244.22;5032199;28;20044;-70
2023/12/21 01:39:17;;;;;;;0.63;0.33;;;6.20;82.10;;;7.69;59.78;97246.34;5031625;28;20037;-70
2023/12/21 01:41:49;;;;;;;0.37;0.10;;;6.20;82.70;;;7.62;59.47;97245.31;5031763;28;20046;-70
2023/12/21 01:44:18;;;;;;;0.60;0.40;;;6.20;81.20;;;7.53;59.96;97246.22;5031763;28;20052;-71
2023/12/21 01:46:46;;;;;;;0.30;0.23;;;6.10;81.70;;;7.55;59.74;97240.78;5031564;28;20409;-69
2023/12/21 01:49:14;;;;;;;0.73;0.30;;;6.10;82.20;;;7.56;59.41;97247.72;5031511;28;20053;-70
2023/12/21 01:51:42;;;;;;;0.67;0.50;;;6.10;81.50;;;7.46;60.09;97224.81;5031705;28;20052;-68
2023/12/21 01:54:09;;;;;;;0.60;0.40;;;6.10;81.70;;;7.53;59.67;97227.69;5031654;28;20041;-70
2023/12/21 01:56:37;;;;;;;0.40;0.40;;;6.10;81.80;;;7.54;59.96;97216.13;5031832;28;20041;-70
2023/12/21 01:59:05;;;;;;;0.40;0.37;;;6.10;81.60;;;7.53;59.54;97214.44;5031531;28;20416;-70
2023/12/21 02:01:33;;;;;;;0.40;0.40;;;6.10;81.40;;;7.53;59.33;97209.13;5005908;28;20049;-70
2023/12/21 02:04:01;;;;;;;0.47;0.40;;;6.10;81.20;;;7.53;59.72;97210.97;5030425;28;20056;-70
2023/12/21 02:06:29;;;;;;;2.00;0.40;;;6.10;81.30;;;7.54;59.53;97204.66;5030528;28;20061;-70
2023/12/21 02:08:57;;;;;;;0.23;0.23;;;6.10;81.60;;;7.56;59.55;97211.50;5030305;28;20076;-70
2023/12/21 02:11:25;;;;;;;0.10;0.10;;;6.20;81.40;;;7.58;59.54;97192.78;5030361;28;20049;-69
2023/12/21 02:13:52;;;;;;;0.27;0.27;;;6.10;81.10;;;7.60;59.73;97180.19;5031337;28;20041;-70
2023/12/21 02:16:28;;;;;;;0.30;0.30;;;6.20;81.10;;;7.54;59.56;97180.81;5031558;28;20041;-70
2023/12/21 02:18:55;;;;;;;0.20;0.20;;;6.10;80.50;;;7.51;59.87;97181.97;5031456;28;20037;-70
2023/12/21 02:21:24;;;;;;;0.37;0.37;;;6.10;81.30;;;7.54;59.61;97172.88;5030230;28;20053;-70
2023/12/21 02:23:53;;;;;;;0.20;0.20;;;6.10;81.50;;;7.59;59.58;97168.78;5031422;28;20049;-70
2023/12/21 02:26:21;;;;;;;0.50;0.50;;;6.10;81.70;;;7.61;59.58;97166.81;5030209;28;20504;-70
2023/12/21 02:28:49;;;;;;;0.77;0.30;;;6.10;81.20;;;7.64;59.24;97168.34;5029868;28;20037;-70
2023/12/21 02:31:16;;;;;;;0.20;0.20;;;6.20;81.40;;;7.61;59.63;97145.63;5031209;28;20045;-70
2023/12/21 02:33:44;;;;;;;0.20;0.20;;;6.10;81.00;;;7.62;59.53;97143.81;5031079;28;20489;-69
2023/12/21 02:36:12;;;;;;;0.53;0.40;;;6.10;81.10;;;7.61;59.52;97136.84;5031053;28;20050;-69
2023/12/21 02:38:39;;;;;;;0.30;0.30;;;6.10;81.20;;;7.56;59.34;97141.75;5028765;28;20042;-70
2023/12/21 02:41:07;;;;;;;1.90;0.37;;;6.10;81.30;;;7.52;59.86;97148.34;5029933;28;20397;-69
2023/12/21 02:43:35;;;;;;;0.20;0.20;;;6.00;81.50;;;7.54;59.92;97130.50;5030875;28;20045;-70
2023/12/21 02:46:02;;;;;;;2.30;0.87;;;6.10;81.30;;;7.53;59.59;97124.38;5030988;28;20300;-70
2023/12/21 02:48:30;;;;;;;0.40;0.30;;;6.10;81.80;;;7.52;59.86;97127.16;5031002;28;20056;-69
2023/12/21 02:51:00;;;;;;;0.60;0.40;;;6.10;81.90;;;7.56;59.56;97120.56;5031204;28;20394;-69
2023/12/21 02:53:28;;;;;;;0.30;0.20;;;6.10;82.30;;;7.54;59.74;97096.06;5030681;28;20042;-69
2023/12/21 02:55:55;;;;;;;0.10;0.10;;;6.10;82.10;;;7.51;60.13;97089.25;5031545;28;20057;-70
2023/12/21 02:58:25;;;;;;;0.10;0.10;;;6.10;82.30;;;7.51;60.02;97086.63;5033557;28;20050;-70
2023/12/21 03:00:53;;;;;;;0.40;0.30;;;6.10;82.10;;;7.55;59.76;97066.78;5035279;28;20041;-70
2023/12/21 03:03:21;;;;;;;0.30;0.30;;;6.10;82.50;;;7.56;60.00;97064.94;5033546;28;20433;-70
2023/12/21 03:05:48;;;;;;;0.23;0.23;;;6.20;82.10;;;7.55;59.81;97042.94;5034785;28;20045;-70
2023/12/21 03:08:16;;;;;;;0.30;0.30;;;6.20;82.10;;;7.58;59.70;97078.84;5034633;28;20134;-69
2023/12/21 03:10:43;;;;;;;0.30;0.30;;;6.10;82.30;;;7.53;59.94;97055.50;5034687;28;20428;-70
2023/12/21 03:13:11;;;;;;;0.27;0.27;;;6.10;82.60;;;7.56;60.21;97059.66;5034808;28;20053;-69
2023/12/21 03:15:39;;;;;;;0.30;0.30;;;6.10;83.10;;;7.55;60.38;97053.53;5034781;28;20041;-70
2023/12/21 03:18:06;;;;;;;0.30;0.20;;;6.10;83.30;;;7.58;60.57;97052.38;5034699;28;20496;-70
2023/12/21 03:20:34;;;;;;;0.20;0.20;;;6.10;83.60;;;7.52;60.77;97061.78;5034892;28;20049;-70
2023/12/21 03:23:02;;;;;;;0.27;0.27;;;6.10;84.50;;;7.45;60.99;97061.56;5034289;28;20056;-70
2023/12/21 03:25:29;;;;;;;0.20;0.20;;;6.00;84.90;;;7.47;60.62;97058.78;5034970;28;20413;-69
2023/12/21 03:27:58;;;;;;;0.30;0.30;;;6.00;85.00;;;7.48;61.15;97044.53;5034357;28;20412;-69
2023/12/21 03:30:26;;;;;;;0.40;0.30;;;6.00;85.10;;;7.52;61.19;97040.56;5034555;28;20049;-69
2023/12/21 03:32:53;;;;;;;0.30;0.30;;;6.00;85.00;;;7.49;60.99;97044.38;5034406;28;20045;-70
2023/12/21 03:35:21;;;;;;;0.43;0.20;;;6.00;84.60;;;7.53;61.02;97046.72;5034502;28;20038;-69
2023/12/21 03:37:49;;;;;;;0.20;0.20;;;6.10;84.60;;;7.55;60.64;97034.97;5034263;28;20041;-70
2023/12/21 03:40:18;;;;;;;0.27;0.27;;;6.10;84.80;;;7.57;60.85;97022.41;5033666;28;20045;-69
2023/12/21 03:42:49;;;;;;;0.30;0.30;;;6.10;84.80;;;7.51;60.95;97025.69;5026371;28;20094;-69
2023/12/21 03:45:18;;;;;;;0.37;0.37;;;6.00;84.80;;;7.48;61.06;97033.94;5034507;28;20041;-70
2023/12/21 03:47:47;;;;;;;0.37;0.37;;;6.00;85.40;;;7.52;61.11;97059.13;5026099;28;20046;-69
2023/12/21 03:50:15;;;;;;;0.93;0.30;;;6.00;85.50;;;7.46;61.18;97063.25;5033169;28;20045;-69
2023/12/21 03:52:44;;;;;;;0.30;0.30;;;6.00;84.90;;;7.44;61.42;97053.78;5033998;28;20041;-69
2023/12/21 03:55:12;;;;;;;0.53;0.30;;;6.00;86.20;;;7.48;61.58;97044.53;5033921;28;20049;-69
2023/12/21 03:57:39;;;;;;;0.30;0.30;;;6.00;85.30;;;7.44;61.46;97046.69;5033669;28;20394;-70
2023/12/21 04:00:08;;;;;;;0.10;0.10;;;5.90;85.80;;;7.45;61.67;97040.38;5033864;28;20053;-69
2023/12/21 04:02:36;;;;;;;0.30;0.30;;;6.00;85.50;;;7.43;61.37;97025.66;5033739;28;20053;-69
2023/12/21 04:05:05;;;;;;;0.20;0.20;;;5.90;86.00;;;7.43;61.46;97033.59;5032864;28;20057;-70
2023/12/21 04:07:33;;;;;;;1.40;0.40;;;5.90;86.30;;;7.39;62.02;97042.84;5032428;28;20061;-69
2023/12/21 04:10:01;;;;;;;0.73;0.23;;;5.90;86.10;;;7.43;61.55;97020.34;5033414;28;20497;-69
2023/12/21 04:12:29;;;;;;;0.30;0.30;;;6.00;86.40;;;7.48;61.60;97021.56;5033905;28;20107;-70
2023/12/21 04:14:56;;;;;;;0.10;0.10;;;6.00;86.20;;;7.48;61.75;97018.91;5033748;28;20048;-70
2023/12/21 04:17:25;;;;;;;0.30;0.30;;;6.00;86.40;;;7.47;61.46;97019.88;5033234;28;20045;-70
2023/12/21 04:19:52;;;;;;;0.20;0.10;;;6.00;86.50;;;7.48;62.14;97018.03;5032749;28;20052;-70
2023/12/21 04:22:20;;;;;;;0.20;0.20;;;6.00;87.10;;;7.52;61.72;97021.22;5033574;28;20052;-69
2023/12/21 04:24:48;;;;;;;0.20;0.20;;;6.10;87.70;;;7.53;61.88;97017.59;5033656;28;20052;-69
2023/12/21 04:27:15;;;;;;;0.10;0.10;;;6.10;87.70;;;7.52;61.93;97003.50;5033504;28;20049;-70
2023/12/21 04:29:43;;;;;;;1.27;0.40;;;6.00;88.10;;;7.49;62.09;97009.13;5033313;28;20445;-69
2023/12/21 04:32:10;;;;;;;2.07;0.30;;;6.00;88.70;;;7.48;62.49;97015.41;5033599;28;20058;-69
2023/12/21 04:34:38;;;;;;;0.20;0.20;;;5.90;88.90;;;7.51;62.17;97004.50;5030888;28;20052;-70
2023/12/21 04:37:06;;;;;;;0.30;0.30;;;5.90;89.20;;;7.47;62.70;96998.69;5033400;28;20049;-70
2023/12/21 04:39:33;;;;;;;0.83;0.50;;;5.90;89.50;;;7.48;62.68;96994.22;5032355;28;20045;-70
2023/12/21 04:42:01;;;;;;;0.57;0.20;;;5.90;89.80;;;7.54;62.55;96990.09;5031271;28;20041;-70
2023/12/21 04:44:37;;;;;;;0.10;0.10;;;6.00;89.50;;;7.54;62.75;96979.50;5033387;28;20152;-71
2023/12/21 04:47:08;;;;;;;0.40;0.33;;;6.00;89.50;;;7.51;62.87;96970.06;5033329;28;20049;-70
2023/12/21 04:49:48;;;;;;;0.67;0.33;;;6.00;89.50;;;7.59;62.62;96979.88;5033199;28;20045;-71
2023/12/21 04:52:16;;;;;;;0.40;0.30;;;6.10;89.40;;;7.59;62.66;96975.41;5032902;28;20045;-70
2023/12/21 04:54:44;;;;;;;0.87;0.30;;;6.10;89.20;;;7.60;62.48;96976.22;5032960;28;20042;-71
2023/12/21 04:57:12;;;;;;;0.43;0.20;;;6.10;90.00;;;7.63;62.50;96962.66;5032644;28;20056;-70
2023/12/21 04:59:42;;;;;;;0.30;0.30;;;6.10;89.40;;;7.65;62.90;96960.69;5033050;28;20041;-71
2023/12/21 05:02:10;;;;;;;0.20;0.20;;;6.10;89.60;;;7.69;62.75;96951.44;5031949;28;20053;-71
2023/12/21 05:04:38;;;;;;;0.30;0.30;;;6.10;89.70;;;7.68;62.52;96936.53;5032684;28;20052;-71
2023/12/21 05:07:08;;;;;;;0.10;0.10;;;6.20;89.40;;;7.64;63.00;96938.66;5032802;28;20045;-70
2023/12/21 05:09:37;;;;;;;0.20;0.20;;;6.20;89.60;;;7.66;62.89;96954.41;5032887;28;20524;-70
2023/12/21 05:12:05;;;;;;;0.10;0.10;;;6.20;89.90;;;7.74;62.99;96965.03;5032323;28;20057;-70
2023/12/21 05:14:33;;;;;;;0.30;0.27;;;6.20;89.40;;;7.79;62.62;96961.91;5032651;28;20496;-70
2023/12/21 05:17:00;;;;;;;0.30;0.30;;;6.30;89.30;;;7.83;62.83;96955.28;5032808;28;20052;-71
2023/12/21 05:19:29;;;;;;;0.10;0.10;;;6.30;89.30;;;7.83;62.58;96957.94;5032352;28;20394;-70
2023/12/21 05:21:57;;;;;;;0.33;0.33;;;6.30;90.10;;;7.86;62.57;96949.66;5031626;28;20042;-70
2023/12/21 05:24:24;;;;;;;0.30;0.20;;;6.30;89.50;;;7.87;62.86;96944.22;5032510;28;20045;-71
2023/12/21 05:26:52;;;;;;;0.20;0.20;;;6.30;89.20;;;7.88;62.36;96943.22;5032797;28;20061;-71
2023/12/21 05:29:20;;;;;;;0.20;0.20;;;6.40;88.90;;;7.84;62.58;96933.94;5032212;28;20049;-71
2023/12/21 05:31:47;;;;;;;0.67;0.50;;;6.30;89.30;;;7.92;62.57;96942.91;5032308;28;20053;-71
2023/12/21 05:34:15;;;;;;;0.53;0.37;;;6.40;89.20;;;7.96;62.56;96936.28;5032256;28;20045;-70
2023/12/21 05:36:43;;;;;;;0.50;0.40;;;6.40;88.90;;;7.92;62.67;96921.69;5032431;28;20042;-71
2023/12/21 05:39:11;;;;;;;0.30;0.30;;;6.40;89.10;;;7.90;63.01;96927.16;5031766;28;20056;-71
2023/12/21 05:41:45;;;;;;;0.60;0.40;;;6.40;89.40;;;7.91;62.55;96925.31;5032259;28;20049;-71
2023/12/21 05:44:13;;;;;;;0.40;0.40;;;6.40;89.60;;;7.88;62.67;96908.75;5032193;28;20042;-70
2023/12/21 05:46:42;;;;;;;0.30;0.30;;;6.30;89.80;;;7.94;62.70;96906.47;5014149;28;20049;-70
2023/12/21 05:49:35;;;;;;;0.20;0.20;;;6.40;89.80;;;7.99;62.80;96909.47;5031884;28;20493;-70
2023/12/21 05:52:03;;;;;;;0.10;0.10;;;6.50;89.10;;;8.00;62.61;96905.81;5023947;28;20516;-70
2023/12/21 05:54:31;;;;;;;0.50;0.50;;;6.50;89.20;;;8.05;62.76;96914.09;5030416;28;20041;-70
2023/12/21 05:56:59;;;;;;;0.20;0.20;;;6.50;89.10;;;7.96;62.61;96915.91;5031818;28;20044;-70
2023/12/21 05:59:27;;;;;;;1.80;0.20;;;6.50;88.80;;;7.96;62.61;96896.53;5030323;28;20042;-70
2023/12/21 06:01:55;;;;;;;0.60;0.43;;;6.50;88.70;;;7.97;62.62;96883.09;5031394;28;20042;-70
2023/12/21 06:04:22;;;;;;;1.80;1.00;;;6.50;88.70;;;7.99;62.68;96875.81;5031634;28;20038;-70
2023/12/21 06:06:50;;;;;;;0.47;0.30;;;6.50;88.90;;;7.97;62.72;96872.50;5030492;28;20049;-70
2023/12/21 06:09:18;;;;;;;1.33;0.50;;;6.50;89.50;;;8.01;62.75;96881.78;5031595;28;20501;-70
2023/12/21 06:11:46;;;;;;;0.37;0.27;;;6.50;89.00;;;8.03;62.34;96874.50;5031016;28;20073;-70
2023/12/21 06:14:17;;;;;;;0.53;0.20;;;6.50;89.20;;;8.01;62.84;96867.72;5031530;28;20043;-69
2023/12/21 06:16:45;;;;;;;1.53;0.50;;;6.50;89.00;;;7.98;62.88;96852.94;5031341;28;20049;-71
2023/12/21 06:19:14;;;;;;;1.60;0.50;;;6.50;89.40;;;7.99;63.04;96843.19;5031180;28;20060;-70
2023/12/21 06:21:42;;;;;;;0.83;0.20;;;6.50;89.70;;;8.01;63.08;96857.94;5031259;28;20050;-71
2023/12/21 06:24:10;;;;;;;2.67;0.60;;;6.50;90.10;;;7.98;63.15;96852.94;5031381;28;20500;-70
2023/12/21 06:26:42;;;;;;;0.67;0.50;;;6.50;90.40;;;8.02;63.07;96837.53;5031173;28;20417;-70
2023/12/21 06:29:10;;;;;;;0.20;0.20;;;6.50;90.50;;;8.02;63.17;96817.16;5031145;28;20531;-70
2023/12/21 06:31:37;;;;;;;1.47;0.30;;;6.50;90.30;;;8.03;63.16;96810.06;5030253;28;20277;-70
2023/12/21 06:34:05;;;;;;;0.73;0.60;;;6.50;90.30;;;8.05;63.13;96800.13;5031356;28;20049;-69
2023/12/21 06:36:33;;;;;;;0.33;0.30;;;6.50;90.20;;;8.06;63.20;96807.91;5030872;28;20068;-68
2023/12/21 06:39:01;;;;;;;0.20;0.20;;;6.50;90.20;;;8.07;63.06;96816.69;5030193;28;20046;-69
2023/12/21 06:41:29;;;;;;;1.37;1.20;;;6.60;89.80;;;8.06;63.23;96815.88;5031062;28;20057;-70
2023/12/21 06:43:56;;;;;;;0.20;0.20;;;6.60;89.90;;;8.04;63.21;96820.47;5030866;28;20037;-69
2023/12/21 06:46:24;;;;;;;0.20;0.20;;;6.60;89.70;;;8.10;63.21;96808.38;5031180;28;20057;-69
2023/12/21 06:48:52;;;;;;;2.27;0.33;;;6.60;89.80;;;8.12;63.16;96809.03;5030881;28;20054;-69
2023/12/21 06:51:19;;;;;;;1.30;0.80;;;6.60;90.50;;;8.15;62.96;96821.16;5031138;28;20049;-68
2023/12/21 06:53:47;;;;;;;0.73;0.60;;;6.70;89.80;;;8.12;63.15;96817.00;5031124;28;20057;-68
2023/12/21 06:56:17;;;;;;;0.40;0.30;;;6.70;89.70;;;8.19;63.00;96819.81;5031368;28;20053;-69
2023/12/21 06:59:01;;;;;;;1.53;0.30;;;6.80;89.40;;;8.26;63.01;96815.53;5030686;28;20432;-68
2023/12/21 07:01:29;;;;;;;0.30;0.30;;;6.80;89.00;;;8.28;62.97;96810.88;5031503;28;20046;-69
2023/12/21 07:03:58;;;;;;;0.50;0.50;;;6.80;88.70;;;8.25;62.94;96813.84;5029885;28;20049;-69
2023/12/21 07:06:25;;;;;;;2.97;2.23;;;6.80;88.90;;;8.26;63.13;96804.91;5030914;28;20424;-69
2023/12/21 07:08:54;;;;;;;1.10;0.60;;;6.80;88.40;;;8.26;62.97;96803.09;5030479;28;20053;-70
2023/12/21 07:11:23;;;;;;;1.03;0.60;;;6.80;88.30;;;8.30;62.86;96795.63;5029769;28;20060;-71
2023/12/21 07:13:50;;;;;;;2.00;1.07;;;6.80;88.80;;;8.34;62.91;96790.81;5030565;28;20505;-71
2023/12/21 07:16:18;;;;;;;1.03;0.67;;;6.90;88.80;;;8.38;62.98;96776.22;5030884;28;20436;-71
2023/12/21 07:18:46;;;;;;;0.83;0.60;;;6.90;88.70;;;8.43;62.70;96777.41;5030775;28;20041;-69
2023/12/21 07:21:14;;;;;;;0.67;0.50;;;6.90;88.80;;;8.44;62.75;96771.09;5030952;28;20037;-68
2023/12/21 07:23:41;;;;;;;0.20;0.20;;;7.00;88.70;;;8.46;63.00;96773.59;5030886;28;20501;-70
2023/12/21 07:26:10;;;;;;;0.30;0.30;;;7.00;88.40;;;8.42;62.87;96781.03;5030724;28;20049;-69
2023/12/21 07:28:40;;;;;;;0.33;0.27;;;7.00;88.50;;;8.44;62.70;96762.31;5030425;28;20052;-71
2023/12/21 07:31:10;;;;;;;0.97;0.63;;;7.00;88.50;;;8.48;62.77;96764.44;5022689;28;20053;-71
2023/12/21 07:33:37;;;;;;;0.87;0.40;;;7.00;88.60;;;8.43;62.95;96765.94;5028998;28;20049;-70
2023/12/21 07:36:07;;;;;;;0.87;0.60;;;7.00;89.00;;;8.50;62.88;96766.13;5019542;28;20050;-70
2023/12/21 07:38:40;;;;;;;0.40;0.40;;;7.10;89.00;;;8.52;62.88;96756.16;5028957;28;20037;-69
2023/12/21 07:41:08;;;;;;;0.43;0.40;;;7.10;88.30;;;8.55;62.88;96754.00;5022581;28;20038;-70
2023/12/21 07:43:37;;;;;;;0.30;0.30;;;7.10;88.60;;;8.55;62.90;96759.31;5030279;28;20037;-69
2023/12/21 07:46:05;;;;;;;0.47;0.47;;;7.10;89.00;;;8.58;62.91;96747.53;5033965;28;20045;-70
2023/12/21 07:48:35;;;;;;;1.07;0.30;;;7.10;88.90;;;8.60;62.96;96751.66;5033177;28;20048;-70
2023/12/21 07:51:03;;;;;;;0.20;0.13;;;7.20;88.90;;;8.64;62.97;96755.59;5033423;28;20048;-71
2023/12/21 07:53:31;;;;;;;0.87;0.40;;;7.20;88.70;;;8.64;63.03;96752.97;5033981;28;20037;-67
2023/12/21 07:55:59;;;;;;;0.20;0.20;;;7.20;88.80;;;8.65;62.84;96749.31;5033830;28;20493;-66
2023/12/21 07:58:27;;;;;;;0.67;0.50;;;7.20;89.20;;;8.67;62.99;96734.06;5032779;28;20405;-68
2023/12/21 08:00:55;;;;;;;0.40;0.40;;;7.20;88.50;;;8.69;62.94;96741.84;5033673;28;20048;-69
2023/12/21 08:03:23;;;;;;;0.30;0.30;;;7.30;88.90;;;8.68;62.93;96753.44;5027548;28;20391;-66
2023/12/21 08:05:50;;;;;;;0.60;0.50;;;7.30;88.60;;;8.71;62.92;96745.16;5028860;28;20050;-68
2023/12/21 08:08:19;;;;;;;0.40;0.40;;;7.30;89.00;;;8.75;63.07;96753.59;5033286;28;20041;-68
2023/12/21 08:10:46;;;;;;;0.30;0.30;;;7.30;88.80;;;8.76;63.08;96740.16;5033568;28;20620;-65
2023/12/21 08:13:14;;;;;;;0.33;0.33;;;7.30;88.80;;;8.77;63.08;96747.13;5033447;28;20049;-69
2023/12/21 08:15:42;;;;;;;0.40;0.40;;;7.30;88.80;;;8.77;63.14;96736.50;5033498;28;20409;-69
2023/12/21 08:18:13;;;;;;;0.40;0.40;;;7.40;88.90;;;8.76;63.15;96726.91;5025139;28;20049;-69
2023/12/21 08:20:42;;;;;;;0.83;0.83;;;7.30;89.30;;;8.74;63.21;96725.41;5033529;28;20400;-69
2023/12/21 08:23:10;;;;;;;0.73;0.50;;;7.30;89.60;;;8.76;63.22;96726.91;5025460;28;20045;-69
2023/12/21 08:25:38;;;;;;;1.33;0.60;;;7.30;89.70;;;8.78;63.24;96714.28;5033282;28;20144;-69
2023/12/21 08:28:06;;;;;;;0.97;0.30;;;7.30;89.70;;;8.81;63.20;96713.09;5032938;28;20041;-68
2023/12/21 08:30:33;;;;;;;0.53;0.50;;;7.30;89.70;;;8.87;63.08;96701.78;5032036;28;20417;-69
2023/12/21 08:33:02;;;;;;;0.30;0.30;;;7.40;89.80;;;8.93;63.06;96705.59;5032416;28;20042;-69
2023/12/21 08:35:30;;;;;;;0.77;0.30;;;7.40;89.10;;;8.90;63.12;96705.91;5032888;28;20068;-68
2023/12/21 08:37:59;;;;;;;2.10;1.90;;;7.40;89.10;;;8.93;62.94;96719.66;5032675;28;20509;-68
2023/12/21 08:40:27;;;;;;;0.50;0.40;;;7.50;89.20;;;8.96;62.87;96719.34;5024738;28;20041;-68
2023/12/21 08:42:55;;;;;;;0.73;0.37;;;7.50;89.00;;;8.95;63.01;96725.63;5031542;28;20038;-68
2023/12/21 08:45:22;;;;;;;0.33;0.33;;;7.50;89.20;;;8.91;63.03;96713.72;5032975;28;20042;-68
2023/12/21 08:47:50;;;;;;;0.53;0.30;;;7.50;89.40;;;8.94;62.95;96708.06;5032301;28;20059;-68
2023/12/21 08:50:18;;;;;;;0.20;0.20;;;7.50;89.30;;;8.97;63.14;96712.19;5032878;28;20449;-68
2023/12/21 08:52:46;;;;;;;0.40;0.40;;;7.60;89.20;;;9.01;62.91;96709.00;5024318;28;20052;-67
2023/12/21 08:55:14;;;;;;;0.37;0.33;;;7.60;88.60;;;9.03;62.98;96700.88;5039400;28;20057;-67
2023/12/21 08:57:42;;;;;;;1.07;0.40;;;7.60;88.70;;;9.09;63.04;96717.94;5023775;28;20401;-68
2023/12/21 09:00:12;;;;;;;0.73;0.53;;;7.60;88.30;;;9.10;62.99;96723.06;5025225;28;20409;-69
2023/12/21 09:02:41;;;;;;;1.63;0.60;;;7.60;88.40;;;9.11;62.83;96692.88;5026102;28;20033;-69
2023/12/21 09:05:12;;;;;;;0.10;0.10;;;7.70;88.50;;;9.11;62.92;96676.94;5025017;28;20171;-68
2023/12/21 09:07:40;;;;;;;0.37;0.30;;;7.70;88.00;;;9.09;62.93;96662.19;5018884;28;20049;-68
2023/12/21 09:10:09;;;;;;;0.53;0.40;;;7.70;88.30;;;9.05;63.12;96667.00;5031587;28;20068;-68
2023/12/21 09:12:37;;;;;;;1.43;0.80;;;7.70;88.10;;;9.11;62.96;96663.69;5032154;28;20057;-67
2023/12/21 09:15:06;;;;;;;1.93;1.03;;;7.70;88.30;;;9.17;63.00;96651.50;5031990;28;20124;-68
2023/12/21 09:17:34;;;;;;;1.23;0.47;;;7.80;87.60;;;9.19;62.88;96646.84;5029704;28;20041;-68
2023/12/21 09:20:02;;;;;;;0.63;0.33;;;7.80;88.10;;;9.19;62.84;96631.75;5021295;28;20045;-68
2023/12/21 09:22:30;;;;;;;0.77;0.37;;;7.80;88.10;;;9.22;62.68;96646.50;5023672;28;20049;-68
2023/12/21 09:25:00;;;;;;;1.37;0.60;;;7.80;87.40;;;9.19;63.00;96638.88;5025375;28;20049;-68
2023/12/21 09:27:30;;;;;;;1.07;0.60;;;7.90;87.50;;;9.21;62.75;96635.06;5023898;28;20053;-68
2023/12/21 09:29:58;;;;;;;0.30;0.30;;;7.90;87.30;;;9.28;62.77;96640.47;5023861;28;20054;-68
2023/12/21 09:32:26;;;;;;;0.40;0.23;;;8.00;86.90;;;9.27;62.66;96639.66;5024504;28;20320;-68
2023/12/21 09:34:53;;;;;;;0.33;0.33;;;8.00;86.80;;;9.25;62.70;96646.16;5021227;28;20049;-68
2023/12/21 09:37:21;;;;;;;0.50;0.30;;;8.00;86.60;;;9.25;62.82;96635.53;5023282;28;20129;-69
2023/12/21 09:39:49;;;;;;;0.40;0.40;;;8.00;86.50;;;9.30;62.41;96645.59;5022932;28;21205;-68
2023/12/21 09:42:17;;;;;;;1.30;0.60;;;8.10;86.60;;;9.35;62.73;96616.69;5025409;28;20052;-67
2023/12/21 09:44:47;;;;;;;0.57;0.50;;;8.10;86.40;;;9.35;62.27;96596.25;5028783;28;20034;-68
2023/12/21 09:47:18;;;;;;;0.40;0.40;;;8.10;86.30;;;9.35;62.32;96596.25;5030924;28;20048;-68
2023/12/21 09:49:47;;;;;;;0.40;0.40;;;8.10;86.40;;;9.41;62.69;96603.50;5034839;28;20044;-68
2023/12/21 09:52:18;;;;;;;0.50;0.50;;;8.10;85.90;;;9.46;62.49;96585.22;5029672;28;20052;-68
2023/12/21 09:54:50;;;;;;;1.20;0.90;;;8.20;86.00;;;9.55;62.29;96577.97;5014161;28;20046;-68
2023/12/21 09:57:18;;;;;;;0.30;0.30;;;8.30;85.70;;;9.55;62.10;96582.47;5032018;28;20105;-68
2023/12/21 09:59:46;;;;;;;0.70;0.53;;;8.30;85.30;;;9.57;61.89;96583.13;5030245;28;20045;-67
2023/12/21 10:02:13;;;;;;;4.13;1.37;;;8.30;84.80;;;9.59;62.22;96587.22;5030998;28;20069;-68
2023/12/21 10:04:44;;;;;;;0.80;0.60;;;8.40;85.10;;;9.59;61.90;96594.38;5032057;28;20178;-68
2023/12/21 10:07:12;;;;;;;1.03;0.60;;;8.40;85.20;;;9.59;62.27;96610.31;5030883;28;20053;-68
2023/12/21 10:09:40;;;;;;;0.20;0.20;;;8.40;84.90;;;9.60;62.13;96596.06;5030395;28;20412;-68
2023/12/21 10:12:08;;;;;;;1.33;0.70;;;8.40;85.00;;;9.60;62.05;96566.81;5031189;28;20060;-68
2023/12/21 10:14:35;;;;;;;0.63;0.40;;;8.40;85.10;;;9.65;62.26;96554.66;5030142;28;20060;-69
2023/12/21 10:17:09;;;;;;;0.30;0.30;;;8.50;85.60;;;9.63;62.29;96529.25;5031081;28;20413;-68
2023/12/21 10:19:37;;;;;;;0.63;0.20;;;8.50;85.10;;;9.66;62.11;96507.63;5030922;28;20543;-69
2023/12/21 10:22:05;;;;;;;0.20;0.20;;;8.50;85.20;;;9.68;62.47;96502.13;5030918;28;20057;-68
2023/12/21 10:24:33;;;;;;;0.30;0.30;;;8.60;85.10;;;9.71;62.09;96488.47;5031094;28;20492;-68
2023/12/21 10:27:02;;;;;;;0.57;0.50;;;8.60;85.30;;;9.81;62.48;96495.16;5029939;28;20041;-68
2023/12/21 10:29:32;;;;;;;0.50;0.50;;;8.70;85.10;;;9.82;62.14;96491.47;5031361;28;20049;-68
2023/12/21 10:31:59;;;;;;;0.40;0.40;;;8.70;84.60;;;9.85;61.90;96464.53;5030484;28;20037;-68
2023/12/21 10:34:27;;;;;;;0.30;0.30;;;8.70;84.80;;;9.92;62.00;96464.59;5029799;28;20420;-68
2023/12/21 10:37:00;;;;;;;0.30;0.30;;;8.80;84.50;;;9.93;62.22;96454.81;5026848;28;20489;-69